Gustavsfors, Sweden

4:37 AM CEST on August 31, 2016 (GMT +0200)
Via dei Giardini | | Change Station

Elev 452 ft 60.14 °N, 13.45 °E | Updated 5 minutes ago

Clear
Clear
49.5 °F
Feels Like 50 °F
N
1.2
Wind Variable Wind from NNW
Gusts 2.5 mph

Today
High -- | Low -- °F
--% Chance of Precip.
Yesterday
High -- | Low -- °F
Precip. -- in
Pressure 30.01 in
Visibility 0.5 miles
Clouds
Windchill 50 °F
Dew Point 48 °F
Humidity 95%
Rainfall 0.00 in
Snow Depth Not available.
5:57 AM 8:10 PM
Waning Crescent, 2% visible
METAR ESOK 310220Z AUTO 22006KT 0800 R03/P1500N R21/P1500N NCD 12/12 Q1016
Pressure 30.01 in
Visibility 0.5 miles
Clouds
Windchill 50 °F
Dew Point 48 °F
Humidity 95%
Rainfall 0.00 in
Snow Depth Not available.
5:57 AM 8:10 PM
Waning Crescent, 2% visible
METAR ESOK 310220Z AUTO 22006KT 0800 R03/P1500N R21/P1500N NCD 12/12 Q1016

10-Day Weather Forecast

×

Almanac

Astronomy

Aug. 31, 2016 Rise Set
Actual Time
Civil Twilight
Nautical Twilight
Astronomical Twilight
Moon
Length of Visible Light
Length of Day
Tomorrow will be .
, % of the Moon is Illuminated

Today's Extremes

Country Highs Country Lows

Community

WunderPhotos

Upload Photos

1,936,002 photos uploaded!

WunderBlog® & News

Nearby

Air Quality

  Air Quality AQ Index Pollutant
Not available.

Snow Depth

Station Depth Elevation

Earthquake Activity

City Distance Mag. Time & Date
Minimum magnitude displayed is 2.5.

Coastal Water Temperatures

Place Temperature

Stations

Nearby Weather Stations

Station Location Temp. Windchill Dew Point Humidity Wind Precip. Elev Updated Type